Time;durP1;ratioP1;P1;durP2;ratioP2;P2;SDS_P1;SDS_P2;PMS_P1;PMS_P2;Temp;Humidity;BMP_temperature;BMP_pressure;BME280_temperature;BME280_humidity;BME280_pressure;Samples;Min_cycle;Max_cycle;Signal;HPM_P1;HPM_P2
2023/11/08 00:02:20;;;;;;;5.72;1.60;;;;;;;;;;5028744;28;20041;-53
2023/11/08 00:04:47;;;;;;;3.30;1.50;;;;;;;;;;5027352;28;20157;-54
2023/11/08 00:07:13;;;;;;;3.38;1.67;;;;;;;;;;5032081;28;20394;-51
2023/11/08 00:09:41;;;;;;;2.88;1.42;;;;;;;;;;5025337;28;20041;-51
2023/11/08 00:12:09;;;;;;;3.70;1.50;;;;;;;;;;5032750;28;20076;-53
2023/11/08 00:14:36;;;;;;;3.25;1.50;;;;;;;;;;5033848;28;20038;-53
2023/11/08 00:17:03;;;;;;;2.97;1.40;;;;;;;;;;5033419;28;20077;-54
2023/11/08 00:19:30;;;;;;;3.78;1.67;;;;;;;;;;5033545;28;20041;-55
2023/11/08 00:21:58;;;;;;;3.70;1.50;;;;;;;;;;5032681;28;20476;-52
2023/11/08 00:24:25;;;;;;;3.30;1.50;;;;;;;;;;5033445;28;20053;-52
2023/11/08 00:26:53;;;;;;;3.30;1.75;;;;;;;;;;5033480;28;20124;-57
2023/11/08 00:29:20;;;;;;;3.88;2.13;;;;;;;;;;5033205;28;20132;-53
2023/11/08 00:31:47;;;;;;;3.28;1.42;;;;;;;;;;5033326;28;20042;-51
2023/11/08 00:34:15;;;;;;;3.88;2.40;;;;;;;;;;5033329;28;20162;-53
2023/11/08 00:36:42;;;;;;;5.20;1.95;;;;;;;;;;5028755;28;20049;-56
2023/11/08 00:39:09;;;;;;;3.95;1.58;;;;;;;;;;5033349;28;20052;-54
2023/11/08 00:41:35;;;;;;;3.90;1.60;;;;;;;;;;5033225;28;20416;-50
2023/11/08 00:44:04;;;;;;;3.05;1.60;;;;;;;;;;5033211;28;20416;-54
2023/11/08 00:46:31;;;;;;;4.30;1.70;;;;;;;;;;5032738;28;20124;-51
2023/11/08 00:48:57;;;;;;;3.75;1.65;;;;;;;;;;5033563;28;20041;-54
2023/11/08 00:51:24;;;;;;;3.00;1.60;;;;;;;;;;5033569;28;20056;-51
2023/11/08 00:53:51;;;;;;;2.53;1.40;;;;;;;;;;5032972;28;20128;-53
2023/11/08 00:56:17;;;;;;;3.83;2.00;;;;;;;;;;5032731;28;20501;-54
2023/11/08 00:58:44;;;;;;;4.13;1.40;;;;;;;;;;5032955;28;20132;-54
2023/11/08 01:01:12;;;;;;;3.28;1.52;;;;;;;;;;5033172;28;20501;-52
2023/11/08 01:03:38;;;;;;;4.38;1.63;;;;;;;;;;5032276;28;20132;-51
2023/11/08 01:06:05;;;;;;;4.07;1.45;;;;;;;;;;5032197;28;20587;-51
2023/11/08 01:08:32;;;;;;;5.05;1.60;;;;;;;;;;5032259;28;20075;-54
2023/11/08 01:10:59;;;;;;;3.13;1.42;;;;;;;;;;5032507;28;20501;-51
2023/11/08 01:13:26;;;;;;;2.78;1.67;;;;;;;;;;5028261;28;20489;-53
2023/11/08 01:15:52;;;;;;;3.58;1.30;;;;;;;;;;5032044;28;20088;-55
2023/11/08 01:18:20;;;;;;;4.50;1.33;;;;;;;;;;5032177;28;20096;-51
2023/11/08 01:20:47;;;;;;;3.70;1.30;;;;;;;;;;5032131;28;20059;-52
2023/11/08 01:23:15;;;;;;;3.78;1.83;;;;;;;;;;5032332;28;20046;-54
2023/11/08 01:25:43;;;;;;;2.75;1.20;;;;;;;;;;5024499;28;20049;-50
2023/11/08 01:28:11;;;;;;;3.80;1.50;;;;;;;;;;5032164;28;20484;-50
2023/11/08 01:30:38;;;;;;;3.17;1.27;;;;;;;;;;5032083;28;20104;-52
2023/11/08 01:33:05;;;;;;;4.13;1.70;;;;;;;;;;5031017;28;20455;-56
2023/11/08 01:35:33;;;;;;;3.15;1.55;;;;;;;;;;5031757;28;20103;-53
2023/11/08 01:37:59;;;;;;;3.42;1.45;;;;;;;;;;5032162;28;20057;-53
2023/11/08 01:40:26;;;;;;;3.55;1.30;;;;;;;;;;5032057;28;20144;-53
2023/11/08 01:42:53;;;;;;;3.72;1.92;;;;;;;;;;5031833;28;20119;-51
2023/11/08 01:45:20;;;;;;;4.20;1.50;;;;;;;;;;5031570;28;20420;-54
2023/11/08 01:47:48;;;;;;;3.28;1.42;;;;;;;;;;5031674;28;20049;-51
2023/11/08 01:50:16;;;;;;;5.30;1.40;;;;;;;;;;5031623;28;20060;-54
2023/11/08 01:52:45;;;;;;;2.10;1.13;;;;;;;;;;5031632;28;20052;-52
2023/11/08 01:55:12;;;;;;;2.78;1.27;;;;;;;;;;5031585;28;20426;-51
2023/11/08 01:57:39;;;;;;;4.70;1.52;;;;;;;;;;5031673;28;20049;-52
2023/11/08 02:00:08;;;;;;;4.10;1.45;;;;;;;;;;5031549;28;20045;-54
2023/11/08 02:02:35;;;;;;;2.03;1.10;;;;;;;;;;5031507;28;20053;-51
2023/11/08 02:05:05;;;;;;;2.40;1.00;;;;;;;;;;5031487;28;20045;-51
2023/11/08 02:07:32;;;;;;;2.97;1.17;;;;;;;;;;5031555;28;20500;-51
2023/11/08 02:10:00;;;;;;;3.45;1.35;;;;;;;;;;5031163;28;20381;-56
2023/11/08 02:12:28;;;;;;;3.13;1.10;;;;;;;;;;5030190;28;20057;-53
2023/11/08 02:15:02;;;;;;;2.08;1.10;;;;;;;;;;5031093;28;20072;-56
2023/11/08 02:17:29;;;;;;;2.97;1.15;;;;;;;;;;5031635;28;20045;-55
2023/11/08 02:19:56;;;;;;;2.42;1.00;;;;;;;;;;5031772;28;20389;-55
2023/11/08 02:22:23;;;;;;;3.92;1.15;;;;;;;;;;5031210;28;20045;-51
2023/11/08 02:24:51;;;;;;;3.25;1.17;;;;;;;;;;5031000;28;20128;-55
2023/11/08 02:27:18;;;;;;;2.20;1.15;;;;;;;;;;5030986;28;20179;-52
2023/11/08 02:29:45;;;;;;;3.90;1.20;;;;;;;;;;5030877;28;20050;-52
2023/11/08 02:32:12;;;;;;;3.13;1.20;;;;;;;;;;5031449;28;20081;-51
2023/11/08 02:34:38;;;;;;;4.57;1.50;;;;;;;;;;5031064;28;20119;-52
2023/11/08 02:37:05;;;;;;;4.93;1.67;;;;;;;;;;5031425;28;20136;-52
2023/11/08 02:39:32;;;;;;;3.78;1.30;;;;;;;;;;5031769;28;20488;-53
2023/11/08 02:42:00;;;;;;;3.80;1.38;;;;;;;;;;5030928;28;20132;-55
2023/11/08 02:44:27;;;;;;;4.22;1.45;;;;;;;;;;5032441;28;20475;-55
2023/11/08 02:46:53;;;;;;;2.78;1.23;;;;;;;;;;5034900;28;20052;-53
2023/11/08 02:49:20;;;;;;;4.25;1.40;;;;;;;;;;5035647;28;20412;-52
2023/11/08 02:51:47;;;;;;;4.25;1.10;;;;;;;;;;5034855;28;20049;-52
2023/11/08 02:54:13;;;;;;;2.88;1.90;;;;;;;;;;5035255;28;20076;-53
2023/11/08 02:56:41;;;;;;;3.47;1.50;;;;;;;;;;5034797;28;20523;-52
2023/11/08 02:59:09;;;;;;;3.42;1.35;;;;;;;;;;5035438;28;20381;-52
2023/11/08 03:01:37;;;;;;;3.05;1.30;;;;;;;;;;5034931;28;20114;-54
2023/11/08 03:04:04;;;;;;;5.43;1.45;;;;;;;;;;5034684;28;20049;-55
2023/11/08 03:06:32;;;;;;;3.30;1.35;;;;;;;;;;5034796;28;20064;-54
2023/11/08 03:08:59;;;;;;;2.83;1.55;;;;;;;;;;5034763;28;20485;-51
2023/11/08 03:11:26;;;;;;;3.42;1.30;;;;;;;;;;5034814;28;20102;-58
2023/11/08 03:13:53;;;;;;;3.47;1.23;;;;;;;;;;5033821;28;20045;-55
2023/11/08 03:16:22;;;;;;;3.17;1.17;;;;;;;;;;5030796;28;20562;-58
2023/11/08 03:18:48;;;;;;;3.40;1.33;;;;;;;;;;5033083;28;20057;-55
2023/11/08 03:21:15;;;;;;;2.72;1.10;;;;;;;;;;5034419;28;20059;-53
2023/11/08 03:23:41;;;;;;;1.80;0.82;;;;;;;;;;5028167;28;20049;-55
2023/11/08 03:26:08;;;;;;;3.83;1.00;;;;;;;;;;5034204;28;20049;-57
2023/11/08 03:28:35;;;;;;;2.42;1.00;;;;;;;;;;5034290;28;20129;-54
2023/11/08 03:31:02;;;;;;;3.08;0.90;;;;;;;;;;5034477;28;20133;-52
2023/11/08 03:33:30;;;;;;;4.32;1.33;;;;;;;;;;5034229;28;20460;-51
2023/11/08 03:35:57;;;;;;;3.60;1.02;;;;;;;;;;5033801;28;20142;-56
2023/11/08 03:38:23;;;;;;;4.78;1.10;;;;;;;;;;5034131;28;20140;-54
2023/11/08 03:40:50;;;;;;;2.85;1.88;;;;;;;;;;5034115;28;20088;-52
2023/11/08 03:43:18;;;;;;;4.78;1.20;;;;;;;;;;5034056;28;20128;-52
2023/11/08 03:45:44;;;;;;;4.85;1.58;;;;;;;;;;5033907;28;20076;-54
2023/11/08 03:48:11;;;;;;;4.05;1.50;;;;;;;;;;5033956;28;20115;-51
2023/11/08 03:50:39;;;;;;;3.17;1.25;;;;;;;;;;5033933;28;20493;-53
2023/11/08 03:53:06;;;;;;;4.07;1.30;;;;;;;;;;5033697;28;20081;-54
2023/11/08 03:55:35;;;;;;;3.60;1.40;;;;;;;;;;5032826;28;20562;-52
2023/11/08 03:58:02;;;;;;;5.40;1.15;;;;;;;;;;5033936;28;20058;-53
2023/11/08 04:00:29;;;;;;;4.05;1.33;;;;;;;;;;5033806;28;20095;-52
2023/11/08 04:02:57;;;;;;;4.85;1.25;;;;;;;;;;5033537;28;20053;-56
2023/11/08 04:05:24;;;;;;;3.05;1.13;;;;;;;;;;5033338;28;20493;-52
2023/11/08 04:07:52;;;;;;;3.38;1.30;;;;;;;;;;5033688;28;20061;-57
2023/11/08 04:10:19;;;;;;;4.70;1.77;;;;;;;;;;5033691;28;20049;-54
2023/11/08 04:12:45;;;;;;;3.45;1.30;;;;;;;;;;5033441;28;20050;-51
2023/11/08 04:15:12;;;;;;;3.55;1.73;;;;;;;;;;5033380;28;20125;-53
2023/11/08 04:17:39;;;;;;;4.30;1.35;;;;;;;;;;5033351;28;20077;-56
2023/11/08 04:20:09;;;;;;;3.50;1.13;;;;;;;;;;5033484;28;20407;-52
2023/11/08 04:22:36;;;;;;;4.30;1.30;;;;;;;;;;5033278;28;20057;-56
2023/11/08 04:25:04;;;;;;;3.80;1.08;;;;;;;;;;5032922;28;20056;-52
2023/11/08 04:27:31;;;;;;;4.00;1.92;;;;;;;;;;5033400;28;20061;-52
2023/11/08 04:29:58;;;;;;;4.63;1.13;;;;;;;;;;5033383;28;20049;-56
2023/11/08 04:32:25;;;;;;;1.60;0.98;;;;;;;;;;5033067;28;20049;-56
2023/11/08 04:34:52;;;;;;;1.92;0.90;;;;;;;;;;5033012;28;20052;-60
2023/11/08 04:37:18;;;;;;;4.88;0.98;;;;;;;;;;5032755;28;20100;-52
2023/11/08 04:39:48;;;;;;;3.38;1.10;;;;;;;;;;5033326;28;20508;-51
2023/11/08 04:42:16;;;;;;;2.63;1.00;;;;;;;;;;5033335;28;20050;-52
2023/11/08 04:44:46;;;;;;;1.90;0.75;;;;;;;;;;5033050;28;20046;-53
2023/11/08 04:47:17;;;;;;;3.58;1.55;;;;;;;;;;5032666;28;20056;-56
2023/11/08 04:49:44;;;;;;;2.67;0.82;;;;;;;;;;5033346;28;20592;-52
2023/11/08 04:52:11;;;;;;;5.72;0.90;;;;;;;;;;5032961;28;20555;-52
2023/11/08 04:54:38;;;;;;;2.05;1.02;;;;;;;;;;5032769;28;20041;-53
2023/11/08 04:57:05;;;;;;;3.28;0.90;;;;;;;;;;5032732;28;20080;-55
2023/11/08 04:59:34;;;;;;;5.13;1.15;;;;;;;;;;5032744;28;20421;-55
2023/11/08 05:02:01;;;;;;;4.07;1.23;;;;;;;;;;5032553;28;20045;-56
2023/11/08 05:04:28;;;;;;;3.05;1.23;;;;;;;;;;5032275;28;20140;-55
2023/11/08 05:06:54;;;;;;;3.15;0.98;;;;;;;;;;5032339;28;20049;-55
2023/11/08 05:09:21;;;;;;;2.92;1.23;;;;;;;;;;5032904;28;20073;-52
2023/11/08 05:11:47;;;;;;;2.45;1.13;;;;;;;;;;5032264;28;20120;-57
2023/11/08 05:14:14;;;;;;;5.97;1.50;;;;;;;;;;5032352;28;20100;-55
2023/11/08 05:16:42;;;;;;;3.78;1.05;;;;;;;;;;5032364;28;20413;-52
2023/11/08 05:19:09;;;;;;;4.45;0.95;;;;;;;;;;5032179;28;20041;-55
2023/11/08 05:21:35;;;;;;;4.13;1.48;;;;;;;;;;5032309;28;20049;-54
2023/11/08 05:24:02;;;;;;;2.03;0.88;;;;;;;;;;5032505;28;20145;-55
2023/11/08 05:26:29;;;;;;;3.50;0.95;;;;;;;;;;5032064;28;20453;-52
2023/11/08 05:28:55;;;;;;;2.50;1.13;;;;;;;;;;5032264;28;20565;-53
2023/11/08 05:31:23;;;;;;;4.50;1.30;;;;;;;;;;5031890;28;20136;-52
2023/11/08 05:33:51;;;;;;;2.72;1.10;;;;;;;;;;5031921;28;20045;-50
2023/11/08 05:36:18;;;;;;;3.83;1.08;;;;;;;;;;5031738;28;20053;-51
2023/11/08 05:38:45;;;;;;;3.80;1.10;;;;;;;;;;5032095;28;20389;-53
2023/11/08 05:41:11;;;;;;;2.40;0.95;;;;;;;;;;5031266;28;20131;-54
2023/11/08 05:43:38;;;;;;;2.20;1.00;;;;;;;;;;5031428;28;20429;-52
2023/11/08 05:46:06;;;;;;;2.85;0.90;;;;;;;;;;5031608;28;20049;-50
2023/11/08 05:48:32;;;;;;;3.72;1.35;;;;;;;;;;5031379;28;20065;-50
2023/11/08 05:51:02;;;;;;;2.58;1.00;;;;;;;;;;5031998;28;20050;-51
2023/11/08 05:53:29;;;;;;;2.17;1.10;;;;;;;;;;5031669;28;20052;-54
2023/11/08 05:55:55;;;;;;;2.50;1.10;;;;;;;;;;5031441;28;20111;-52
2023/11/08 05:58:22;;;;;;;2.22;0.90;;;;;;;;;;5031370;28;20087;-53
2023/11/08 06:00:49;;;;;;;3.40;1.00;;;;;;;;;;5031724;28;20138;-54
2023/11/08 06:03:16;;;;;;;4.10;1.10;;;;;;;;;;5031723;28;20053;-51
2023/11/08 06:05:42;;;;;;;3.60;1.20;;;;;;;;;;5031445;28;20054;-54
2023/11/08 06:08:10;;;;;;;3.28;1.10;;;;;;;;;;5031831;28;20565;-51
2023/11/08 06:10:37;;;;;;;2.83;1.10;;;;;;;;;;5031548;28;20569;-54
2023/11/08 06:13:04;;;;;;;4.43;1.45;;;;;;;;;;5031271;28;20133;-54
2023/11/08 06:15:30;;;;;;;4.47;1.17;;;;;;;;;;5031596;28;20124;-54
2023/11/08 06:17:57;;;;;;;3.20;1.23;;;;;;;;;;5031406;28;20046;-52
2023/11/08 06:20:24;;;;;;;3.47;1.50;;;;;;;;;;5031048;28;20133;-58
2023/11/08 06:22:51;;;;;;;3.17;1.17;;;;;;;;;;5031639;28;20057;-52
2023/11/08 06:25:19;;;;;;;3.10;1.33;;;;;;;;;;5030756;28;20132;-54
2023/11/08 06:27:46;;;;;;;3.03;0.95;;;;;;;;;;5031580;28;20045;-55
2023/11/08 06:30:12;;;;;;;4.38;1.17;;;;;;;;;;5031796;28;20100;-55
2023/11/08 06:32:39;;;;;;;1.52;0.85;;;;;;;;;;5032082;28;20088;-53
2023/11/08 06:35:06;;;;;;;3.67;1.35;;;;;;;;;;5032191;28;20128;-54
2023/11/08 06:37:33;;;;;;;2.80;1.02;;;;;;;;;;5031649;28;20517;-53
2023/11/08 06:39:59;;;;;;;3.03;1.10;;;;;;;;;;5031649;28;20132;-55
2023/11/08 06:42:26;;;;;;;2.90;1.20;;;;;;;;;;5031716;28;20049;-58
2023/11/08 06:44:53;;;;;;;3.08;1.30;;;;;;;;;;5031563;28;20045;-59
2023/11/08 06:47:20;;;;;;;2.85;1.10;;;;;;;;;;5032088;28;20089;-58
2023/11/08 06:49:46;;;;;;;3.47;1.20;;;;;;;;;;5031466;28;20132;-59
2023/11/08 06:52:13;;;;;;;2.70;1.13;;;;;;;;;;5031256;28;20053;-58
2023/11/08 06:54:41;;;;;;;4.15;1.40;;;;;;;;;;5031267;28;20075;-55
2023/11/08 06:57:08;;;;;;;2.50;0.98;;;;;;;;;;5031130;28;20083;-58
2023/11/08 06:59:36;;;;;;;2.15;0.90;;;;;;;;;;5031335;28;20136;-57
2023/11/08 07:02:03;;;;;;;3.42;1.05;;;;;;;;;;5031429;28;20142;-58
2023/11/08 07:04:30;;;;;;;3.92;1.10;;;;;;;;;;5030760;28;20065;-57
2023/11/08 07:06:57;;;;;;;3.53;1.40;;;;;;;;;;5031369;28;20042;-56
2023/11/08 07:09:23;;;;;;;3.22;1.30;;;;;;;;;;5031107;28;20432;-58
2023/11/08 07:11:50;;;;;;;2.20;1.02;;;;;;;;;;5031292;28;20084;-58
2023/11/08 07:14:17;;;;;;;3.40;1.25;;;;;;;;;;5030964;28;20085;-59
2023/11/08 07:16:45;;;;;;;4.22;1.00;;;;;;;;;;5031066;28;20041;-56
2023/11/08 07:19:13;;;;;;;3.10;1.25;;;;;;;;;;5031153;28;20127;-57
2023/11/08 07:21:40;;;;;;;2.13;1.00;;;;;;;;;;5031143;28;20527;-56
2023/11/08 07:24:07;;;;;;;4.45;0.90;;;;;;;;;;5031792;28;20076;-58
2023/11/08 07:26:34;;;;;;;3.20;1.00;;;;;;;;;;5031261;28;20089;-58
2023/11/08 07:29:04;;;;;;;3.78;1.05;;;;;;;;;;5031076;28;20103;-56
2023/11/08 07:31:30;;;;;;;3.10;0.90;;;;;;;;;;5024857;28;20056;-59
2023/11/08 07:33:59;;;;;;;2.92;1.45;;;;;;;;;;5034642;28;20809;-61
2023/11/08 07:36:29;;;;;;;3.60;1.25;;;;;;;;;;5034647;28;20057;-61
2023/11/08 07:38:56;;;;;;;3.97;1.02;;;;;;;;;;5034467;28;20087;-59
2023/11/08 07:41:23;;;;;;;3.40;1.10;;;;;;;;;;5026903;28;20104;-58
2023/11/08 07:43:49;;;;;;;4.80;1.05;;;;;;;;;;5029776;28;20408;-59
2023/11/08 07:46:16;;;;;;;5.35;1.58;;;;;;;;;;5023240;28;20052;-58
2023/11/08 07:48:43;;;;;;;3.60;1.05;;;;;;;;;;5030530;28;20052;-59
2023/11/08 07:51:11;;;;;;;2.97;1.10;;;;;;;;;;5030021;28;20049;-58
2023/11/08 07:53:37;;;;;;;2.92;1.10;;;;;;;;;;5033266;28;20140;-57
2023/11/08 07:56:06;;;;;;;4.20;1.20;;;;;;;;;;5024490;28;20128;-59
2023/11/08 07:58:33;;;;;;;3.75;1.10;;;;;;;;;;5032599;28;20053;-58
2023/11/08 08:01:00;;;;;;;4.10;0.88;;;;;;;;;;5033746;28;20489;-59
2023/11/08 08:03:27;;;;;;;3.33;0.90;;;;;;;;;;5033761;28;20057;-58
2023/11/08 08:05:56;;;;;;;3.70;1.30;;;;;;;;;;5033894;28;20531;-55
2023/11/08 08:08:25;;;;;;;2.92;0.90;;;;;;;;;;5033777;28;20501;-57
2023/11/08 08:10:51;;;;;;;2.85;0.88;;;;;;;;;;5033629;28;20500;-61
2023/11/08 08:13:18;;;;;;;6.38;1.27;;;;;;;;;;5033658;28;20132;-57
2023/11/08 08:15:45;;;;;;;3.70;1.10;;;;;;;;;;5034294;28;20053;-58
2023/11/08 08:18:12;;;;;;;2.85;1.10;;;;;;;;;;5026429;28;20054;-57
2023/11/08 08:20:39;;;;;;;4.47;1.40;;;;;;;;;;5027515;28;20052;-57
2023/11/08 08:23:09;;;;;;;5.38;1.15;;;;;;;;;;5026607;28;20064;-57
2023/11/08 08:25:38;;;;;;;3.28;0.85;;;;;;;;;;5028056;28;20558;-58
2023/11/08 08:28:05;;;;;;;2.92;0.95;;;;;;;;;;5027179;28;20057;-57
2023/11/08 08:30:32;;;;;;;1.85;0.80;;;;;;;;;;5032827;28;20048;-57
2023/11/08 08:32:58;;;;;;;1.95;0.85;;;;;;;;;;5030293;28;20176;-59
2023/11/08 08:35:25;;;;;;;3.20;0.90;;;;;;;;;;5024576;28;20057;-57
2023/11/08 08:37:52;;;;;;;3.42;1.10;;;;;;;;;;5025632;28;20428;-57
2023/11/08 08:40:19;;;;;;;4.03;0.90;;;;;;;;;;5028859;28;20049;-56
2023/11/08 08:42:47;;;;;;;2.22;0.82;;;;;;;;;;5025598;28;20057;-65
2023/11/08 08:45:13;;;;;;;2.17;0.80;;;;;;;;;;5022899;28;20137;-63
2023/11/08 08:47:41;;;;;;;2.60;0.90;;;;;;;;;;5030265;28;20132;-63
2023/11/08 08:50:11;;;;;;;3.47;1.00;;;;;;;;;;5031103;28;20073;-60
2023/11/08 08:52:38;;;;;;;2.35;1.00;;;;;;;;;;5031540;28;20049;-60
2023/11/08 08:55:05;;;;;;;3.00;0.80;;;;;;;;;;5030795;28;20663;-59
2023/11/08 08:57:32;;;;;;;4.75;1.02;;;;;;;;;;5029985;28;20048;-61
2023/11/08 09:00:01;;;;;;;5.72;1.23;;;;;;;;;;5031270;28;20056;-68
2023/11/08 09:02:28;;;;;;;2.30;0.70;;;;;;;;;;5026491;28;20225;-56
2023/11/08 09:04:54;;;;;;;4.82;0.90;;;;;;;;;;5022419;28;20056;-55
2023/11/08 09:07:21;;;;;;;3.03;1.65;;;;;;;;;;5027661;28;20419;-58
2023/11/08 09:09:48;;;;;;;2.80;0.90;;;;;;;;;;5027698;28;20494;-56
2023/11/08 09:12:14;;;;;;;3.05;0.93;;;;;;;;;;5025537;28;20049;-58
2023/11/08 09:14:41;;;;;;;2.63;0.90;;;;;;;;;;5019804;28;20052;-58
2023/11/08 09:17:09;;;;;;;3.80;1.15;;;;;;;;;;5030345;28;20067;-58
2023/11/08 09:19:36;;;;;;;3.58;0.70;;;;;;;;;;5030023;28;20129;-54
2023/11/08 09:22:03;;;;;;;2.83;1.00;;;;;;;;;;5030024;28;20527;-57
2023/11/08 09:24:30;;;;;;;2.13;0.93;;;;;;;;;;5027823;28;20428;-58
2023/11/08 09:26:56;;;;;;;3.60;0.90;;;;;;;;;;5029963;28;20501;-58
2023/11/08 09:29:24;;;;;;;2.60;1.42;;;;;;;;;;5029261;28;20174;-55
2023/11/08 09:31:50;;;;;;;5.30;1.10;;;;;;;;;;5028247;28;20492;-55
2023/11/08 09:34:19;;;;;;;2.65;1.10;;;;;;;;;;5024860;28;20041;-51
2023/11/08 09:36:46;;;;;;;2.22;1.00;;;;;;;;;;5028166;28;20042;-57
2023/11/08 09:39:14;;;;;;;3.30;0.80;;;;;;;;;;5028516;28;20119;-56
2023/11/08 09:41:41;;;;;;;3.58;0.85;;;;;;;;;;5028995;28;20189;-56
2023/11/08 09:44:08;;;;;;;3.50;1.00;;;;;;;;;;5028133;28;20041;-56
2023/11/08 09:46:37;;;;;;;5.28;1.60;;;;;;;;;;5029779;28;20037;-60
2023/11/08 09:49:04;;;;;;;3.38;0.90;;;;;;;;;;5029741;28;20055;-59
2023/11/08 09:51:34;;;;;;;2.35;0.82;;;;;;;;;;5025413;28;20417;-55
2023/11/08 09:54:03;;;;;;;2.40;0.93;;;;;;;;;;5028694;28;20504;-57
2023/11/08 09:56:31;;;;;;;4.35;1.23;;;;;;;;;;5026175;28;20314;-56
2023/11/08 09:58:59;;;;;;;4.20;1.20;;;;;;;;;;5027254;28;20088;-56
2023/11/08 10:01:29;;;;;;;4.78;1.42;;;;;;;;;;5029930;28;20553;-57
2023/11/08 10:03:56;;;;;;;5.03;0.90;;;;;;;;;;5029996;28;20041;-54
2023/11/08 10:06:26;;;;;;;3.40;1.10;;;;;;;;;;5026472;28;20492;-57
2023/11/08 10:08:55;;;;;;;7.50;1.13;;;;;;;;;;5026784;28;20064;-58
2023/11/08 10:11:24;;;;;;;4.40;1.20;;;;;;;;;;5029653;28;20568;-58
2023/11/08 10:13:52;;;;;;;3.53;1.10;;;;;;;;;;5030082;28;20572;-56
2023/11/08 10:16:24;;;;;;;3.28;0.95;;;;;;;;;;5026825;28;20344;-57
2023/11/08 10:18:58;;;;;;;7.25;1.25;;;;;;;;;;5026329;28;20052;-57
2023/11/08 10:21:26;;;;;;;3.42;0.80;;;;;;;;;;5029373;28;20080;-57
2023/11/08 10:23:56;;;;;;;2.47;0.73;;;;;;;;;;5024846;28;20555;-57
2023/11/08 10:26:25;;;;;;;3.95;0.95;;;;;;;;;;5025936;28;20061;-56
2023/11/08 10:29:00;;;;;;;4.45;0.82;;;;;;;;;;5024505;28;20080;-57
2023/11/08 10:31:33;;;;;;;1.90;0.80;;;;;;;;;;5023977;28;20049;-58
2023/11/08 10:34:01;;;;;;;1.77;0.68;;;;;;;;;;5018365;28;20037;-56
2023/11/08 10:36:29;;;;;;;2.78;0.70;;;;;;;;;;5029373;28;20468;-58
2023/11/08 10:38:57;;;;;;;3.28;0.88;;;;;;;;;;5024077;28;20135;-58
2023/11/08 10:41:24;;;;;;;2.70;0.60;;;;;;;;;;5020741;28;20128;-58
2023/11/08 10:44:07;;;;;;;5.25;0.95;;;;;;;;;;5021318;28;20117;-54
2023/11/08 10:46:34;;;;;;;1.85;0.82;;;;;;;;;;5023619;28;20481;-58
2023/11/08 10:49:01;;;;;;;2.20;0.90;;;;;;;;;;5028234;28;20429;-58
2023/11/08 10:51:30;;;;;;;3.58;0.82;;;;;;;;;;5027232;28;20049;-57
2023/11/08 10:53:58;;;;;;;4.07;0.93;;;;;;;;;;5018893;28;20052;-57
2023/11/08 10:56:28;;;;;;;1.83;0.70;;;;;;;;;;5020648;28;20057;-57
2023/11/08 10:58:59;;;;;;;3.33;0.85;;;;;;;;;;5028907;28;20424;-57
2023/11/08 11:01:29;;;;;;;;;;;;;;;;;;5030152;28;20059;-58
2023/11/08 11:04:01;;;;;;;3.85;1.02;;;;;;;;;;5029402;28;19925;-59
2023/11/08 11:06:29;;;;;;;4.57;1.20;;;;;;;;;;5031991;28;20401;-58
2023/11/08 11:08:58;;;;;;;3.95;0.90;;;;;;;;;;5033502;28;20053;-55
2023/11/08 11:11:26;;;;;;;3.83;1.00;;;;;;;;;;5033174;28;20132;-57
2023/11/08 11:13:59;;;;;;;4.13;0.90;;;;;;;;;;5032802;28;20054;-58
2023/11/08 11:16:30;;;;;;;2.58;0.80;;;;;;;;;;5033239;28;20104;-55
2023/11/08 11:19:01;;;;;;;3.90;0.80;;;;;;;;;;5033341;28;20053;-56
2023/11/08 11:21:43;;;;;;;1.73;1.00;;;;;;;;;;5032932;28;20049;-55
2023/11/08 11:24:42;;;;;;;1.95;0.85;;;;;;;;;;5033288;28;20053;-60
2023/11/08 11:27:10;;;;;;;3.67;0.88;;;;;;;;;;5032719;28;20042;-56
2023/11/08 11:29:39;;;;;;;2.80;1.05;;;;;;;;;;5032586;28;20404;-57
2023/11/08 11:32:32;;;;;;;3.85;0.80;;;;;;;;;;5032854;28;20136;-57
2023/11/08 11:35:00;;;;;;;1.65;0.77;;;;;;;;;;5026629;28;20128;-55
2023/11/08 11:37:27;;;;;;;3.90;0.80;;;;;;;;;;5032683;28;20515;-55
2023/11/08 11:40:14;;;;;;;1.95;0.70;;;;;;;;;;5032731;28;20046;-57
2023/11/08 11:42:43;;;;;;;4.53;1.02;;;;;;;;;;5032444;28;20041;-57
2023/11/08 11:45:10;;;;;;;3.08;1.00;;;;;;;;;;5032560;28;20205;-56
2023/11/08 11:47:37;;;;;;;3.03;0.80;;;;;;;;;;5029226;28;20670;-58
2023/11/08 11:50:07;;;;;;;3.17;1.00;;;;;;;;;;5032079;28;20080;-57
2023/11/08 11:52:35;;;;;;;4.07;1.70;;;;;;;;;;5032189;28;20052;-55
2023/11/08 11:55:04;;;;;;;5.50;2.40;;;;;;;;;;5032257;28;20148;-57
2023/11/08 11:57:32;;;;;;;2.30;1.45;;;;;;;;;;5032280;28;20064;-57
2023/11/08 12:00:01;;;;;;;6.50;2.05;;;;;;;;;;5028233;28;20043;-54
2023/11/08 12:02:28;;;;;;;3.10;1.08;;;;;;;;;;5021104;28;20664;-61
2023/11/08 12:04:57;;;;;;;2.08;0.90;;;;;;;;;;5023184;28;20529;-57
2023/11/08 12:07:24;;;;;;;2.20;0.85;;;;;;;;;;5026737;28;20081;-57
2023/11/08 12:09:51;;;;;;;3.63;1.20;;;;;;;;;;5029271;28;20056;-55
2023/11/08 12:12:26;;;;;;;9.23;2.75;;;;;;;;;;5029106;28;20055;-56
2023/11/08 12:14:55;;;;;;;6.13;1.60;;;;;;;;;;5028751;28;20067;-54
2023/11/08 12:17:23;;;;;;;3.42;1.30;;;;;;;;;;5028260;28;20121;-54
2023/11/08 12:19:50;;;;;;;2.67;1.10;;;;;;;;;;5031490;28;20055;-56
2023/11/08 12:22:16;;;;;;;4.35;1.40;;;;;;;;;;5032252;28;20042;-58
2023/11/08 12:24:43;;;;;;;3.00;1.20;;;;;;;;;;5028674;28;20073;-57
2023/11/08 12:27:10;;;;;;;5.10;1.50;;;;;;;;;;5029041;28;20045;-57
2023/11/08 12:29:37;;;;;;;3.38;1.42;;;;;;;;;;5031553;28;20045;-56
2023/11/08 12:32:06;;;;;;;3.53;1.27;;;;;;;;;;5032377;28;20448;-57
2023/11/08 12:34:32;;;;;;;7.45;3.03;;;;;;;;;;5031736;28;20559;-58
2023/11/08 12:36:59;;;;;;;6.15;2.10;;;;;;;;;;5031436;28;20088;-58
2023/11/08 12:39:26;;;;;;;2.70;1.30;;;;;;;;;;5027554;28;20125;-56
2023/11/08 12:41:55;;;;;;;2.70;1.27;;;;;;;;;;5030282;28;20049;-59
2023/11/08 12:44:23;;;;;;;6.18;1.52;;;;;;;;;;5028653;28;20069;-56
2023/11/08 12:46:53;;;;;;;4.38;1.10;;;;;;;;;;5031471;28;20049;-52
2023/11/08 12:49:25;;;;;;;3.85;1.13;;;;;;;;;;5031933;28;20497;-53
2023/11/08 12:51:52;;;;;;;1.75;0.90;;;;;;;;;;5031279;28;20136;-58
2023/11/08 12:54:20;;;;;;;2.10;0.80;;;;;;;;;;5031340;28;20128;-55
2023/11/08 12:56:47;;;;;;;2.75;0.90;;;;;;;;;;5024409;28;20556;-58
2023/11/08 12:59:15;;;;;;;3.10;0.93;;;;;;;;;;5026280;28;20041;-58
2023/11/08 13:01:43;;;;;;;4.05;0.90;;;;;;;;;;5031041;28;20539;-57
2023/11/08 13:04:11;;;;;;;2.78;0.88;;;;;;;;;;5026879;28;20481;-58
2023/11/08 13:06:39;;;;;;;2.05;0.90;;;;;;;;;;5030752;28;20049;-54
2023/11/08 13:09:06;;;;;;;4.45;1.33;;;;;;;;;;5028809;28;20041;-56
2023/11/08 13:11:33;;;;;;;3.65;1.10;;;;;;;;;;5023862;28;20081;-54
2023/11/08 13:14:00;;;;;;;2.65;0.90;;;;;;;;;;5025816;28;20480;-55
2023/11/08 13:16:27;;;;;;;2.70;0.77;;;;;;;;;;5021997;28;20104;-58
2023/11/08 13:18:54;;;;;;;2.40;1.00;;;;;;;;;;5027958;28;20457;-54
2023/11/08 13:21:21;;;;;;;2.30;1.38;;;;;;;;;;5022966;28;20394;-57
2023/11/08 13:23:49;;;;;;;3.47;1.40;;;;;;;;;;5023716;28;20492;-55
2023/11/08 13:26:16;;;;;;;2.25;1.25;;;;;;;;;;5024448;28;20046;-57
2023/11/08 13:28:44;;;;;;;2.55;1.10;;;;;;;;;;5024568;28;22604;-56
2023/11/08 13:31:12;;;;;;;2.85;1.20;;;;;;;;;;5025421;28;20049;-53
2023/11/08 13:33:40;;;;;;;3.42;1.10;;;;;;;;;;5027910;28;20045;-59
2023/11/08 13:36:07;;;;;;;2.15;1.10;;;;;;;;;;5026350;28;20049;-58
2023/11/08 13:38:34;;;;;;;3.47;1.33;;;;;;;;;;5026282;28;20056;-54
2023/11/08 13:41:03;;;;;;;4.38;1.33;;;;;;;;;;5026059;28;20076;-57
2023/11/08 13:43:30;;;;;;;3.97;1.50;;;;;;;;;;5024515;28;20135;-60
2023/11/08 13:45:56;;;;;;;2.47;1.20;;;;;;;;;;5029511;28;20084;-58
2023/11/08 13:48:23;;;;;;;3.33;1.10;;;;;;;;;;5030521;28;20044;-58
2023/11/08 13:50:49;;;;;;;2.30;0.90;;;;;;;;;;5030283;28;20134;-57
2023/11/08 13:53:16;;;;;;;2.38;1.10;;;;;;;;;;5021640;28;20181;-58
2023/11/08 13:55:43;;;;;;;3.78;1.00;;;;;;;;;;5026811;28;20121;-56
2023/11/08 13:58:11;;;;;;;2.97;1.30;;;;;;;;;;5025039;28;20041;-54
2023/11/08 14:00:37;;;;;;;3.67;1.35;;;;;;;;;;5027219;28;20100;-56
2023/11/08 14:03:06;;;;;;;2.58;1.10;;;;;;;;;;5025481;28;20053;-57
2023/11/08 14:05:32;;;;;;;4.70;1.55;;;;;;;;;;5026412;28;20037;-56
2023/11/08 14:08:01;;;;;;;3.33;1.25;;;;;;;;;;5027920;28;20096;-58
2023/11/08 14:10:28;;;;;;;2.83;1.10;;;;;;;;;;5025824;28;20054;-58
2023/11/08 14:12:54;;;;;;;2.30;1.30;;;;;;;;;;5025106;28;20124;-54
2023/11/08 14:15:24;;;;;;;1.95;1.15;;;;;;;;;;5027514;28;20371;-57
2023/11/08 14:17:51;;;;;;;4.25;1.35;;;;;;;;;;5023637;28;20087;-58
2023/11/08 14:20:18;;;;;;;2.45;1.05;;;;;;;;;;5025411;28;20045;-56
2023/11/08 14:22:45;;;;;;;3.17;1.20;;;;;;;;;;5029628;28;20045;-55
2023/11/08 14:25:12;;;;;;;3.25;1.30;;;;;;;;;;5028126;28;20432;-57
2023/11/08 14:27:39;;;;;;;2.88;1.23;;;;;;;;;;5026651;28;20148;-57
2023/11/08 14:30:08;;;;;;;4.68;1.20;;;;;;;;;;5025078;28;20041;-57
2023/11/08 14:32:36;;;;;;;3.38;1.20;;;;;;;;;;5024302;28;20100;-60
2023/11/08 14:35:03;;;;;;;2.63;1.10;;;;;;;;;;5024392;28;20132;-57
2023/11/08 14:37:30;;;;;;;2.45;1.10;;;;;;;;;;5026801;28;20061;-58
2023/11/08 14:39:57;;;;;;;3.15;1.20;;;;;;;;;;5027801;28;20050;-58
2023/11/08 14:42:24;;;;;;;4.18;1.10;;;;;;;;;;5033710;28;20067;-57
2023/11/08 14:44:50;;;;;;;3.80;2.25;;;;;;;;;;5033671;28;20041;-59
2023/11/08 14:47:20;;;;;;;3.28;1.20;;;;;;;;;;5033135;28;20047;-58